Cleveland, Ohio
Traffic Map
Current Weather Conditions
Cleveland, Ohio
Clear
Clear
69°
Feels Like: 69°
Wind Chill: 69° Ceiling: Unl
Heat Index: 69° Visibility: 10mi
Dew Point: 58° Wind: 7mph
Humidity: 68% Direction: 360° (N)
Pressure: 29.96in Gusts: 0mph
Raw Report DataKBKL 041253Z 36006KT 10SM CLR 21/14 A2996 RMK AO2 SLP141 T02060144
Traffic Incident Summary
Active as of:
Severity:
Category:
InformationThere was an issue retrieving the traffic information for this location. Please try a different location or try again shortly.
Advertisements
Track Severe Weather on mobile